Time;durP1;ratioP1;P1;durP2;ratioP2;P2;SDS_P1;SDS_P2;PMS_P1;PMS_P2;Temp;Humidity;BMP_temperature;BMP_pressure;BME280_temperature;BME280_humidity;BME280_pressure;Samples;Min_cycle;Max_cycle;Signal;HPM_P1;HPM_P2
2023/08/08 00:02:09;;;;;;;7.03;1.60;;;12.80;99.90;;;13.89;100.00;98232.09;5018596;28;20472;-83
2023/08/08 00:04:39;;;;;;;8.73;1.60;;;12.80;99.90;;;13.89;100.00;98227.66;5022529;28;20465;-82
2023/08/08 00:07:10;;;;;;;8.53;2.47;;;12.80;99.90;;;13.92;100.00;98222.00;5021981;28;20497;-82
2023/08/08 00:09:39;;;;;;;5.50;1.87;;;12.80;99.90;;;13.87;100.00;98218.38;5021501;28;20591;-82
2023/08/08 00:12:10;;;;;;;2.17;1.50;;;12.90;99.90;;;13.82;100.00;98231.31;5021884;28;20458;-82
2023/08/08 00:14:39;;;;;;;5.50;1.97;;;12.80;99.90;;;13.85;100.00;98225.66;5022284;28;20516;-83
2023/08/08 00:17:12;;;;;;;2.93;1.33;;;12.70;99.90;;;13.81;100.00;98219.19;5021822;28;20844;-83
2023/08/08 00:19:41;;;;;;;2.40;1.90;;;12.80;99.90;;;13.79;100.00;98213.31;5020317;28;20508;-82
2023/08/08 00:22:11;;;;;;;2.73;1.60;;;12.70;99.90;;;13.72;100.00;98212.50;5020459;28;20892;-83
2023/08/08 00:24:41;;;;;;;1.60;1.43;;;12.60;99.90;;;13.69;100.00;98215.53;5019554;28;20511;-82
2023/08/08 00:27:11;;;;;;;5.93;1.77;;;12.60;99.90;;;13.67;100.00;98207.88;5023626;28;20550;-84
2023/08/08 00:29:41;;;;;;;4.03;1.70;;;12.50;99.90;;;13.61;100.00;98214.72;5020594;28;21852;-83
2023/08/08 00:32:13;;;;;;;9.90;1.53;;;12.60;99.90;;;13.59;100.00;98203.63;5020586;28;20458;-83
2023/08/08 00:34:42;;;;;;;2.90;1.50;;;12.50;99.90;;;13.57;100.00;98208.25;5021143;28;20466;-82
2023/08/08 00:37:12;;;;;;;3.17;1.60;;;12.50;99.90;;;13.56;100.00;98204.03;5020274;28;20477;-82
2023/08/08 00:39:45;;;;;;;3.60;1.60;;;12.50;99.90;;;13.47;100.00;98202.59;5021823;28;20964;-84
2023/08/08 00:42:15;;;;;;;1.97;1.43;;;12.50;99.90;;;13.39;100.00;98210.69;5018226;28;20474;-84
2023/08/08 00:44:45;;;;;;;4.33;1.87;;;12.40;99.90;;;13.36;100.00;98211.06;5021065;28;20463;-82
2023/08/08 00:47:16;;;;;;;2.27;1.70;;;12.40;99.90;;;13.35;100.00;98216.53;5021054;28;20477;-84
2023/08/08 00:49:48;;;;;;;4.50;1.50;;;12.40;99.90;;;13.34;100.00;98218.34;5021733;28;21021;-83
2023/08/08 00:52:19;;;;;;;5.10;1.40;;;12.30;99.90;;;13.33;100.00;98216.72;5021691;28;20476;-83
2023/08/08 00:54:49;;;;;;;2.53;1.70;;;12.20;99.90;;;13.35;100.00;98214.72;5019163;28;20466;-83
2023/08/08 00:57:19;;;;;;;3.80;2.00;;;12.20;99.90;;;13.30;100.00;98204.00;5021542;28;20468;-83
2023/08/08 00:59:49;;;;;;;6.13;1.70;;;12.20;99.90;;;13.30;100.00;98211.06;5024171;28;20485;-83
2023/08/08 01:02:21;;;;;;;2.40;1.60;;;12.30;99.90;;;13.24;100.00;98207.44;5020844;28;20470;-83
2023/08/08 01:04:50;;;;;;;3.43;1.67;;;12.20;99.90;;;13.25;100.00;98203.81;5020750;28;20466;-83
2023/08/08 01:07:30;;;;;;;4.90;1.60;;;12.10;99.90;;;13.23;100.00;98197.09;5021750;28;20498;-83
2023/08/08 01:10:10;;;;;;;4.40;1.97;;;12.00;99.90;;;13.21;100.00;98199.94;5024430;28;20490;-83
2023/08/08 01:12:47;;;;;;;3.63;1.73;;;12.10;99.90;;;13.19;100.00;98194.06;5023494;28;20987;-83
2023/08/08 01:15:18;;;;;;;9.83;1.47;;;12.10;99.90;;;13.16;100.00;98186.59;5025016;28;20501;-83
2023/08/08 01:17:51;;;;;;;11.33;1.97;;;12.10;99.90;;;13.14;100.00;98201.75;5023611;28;20985;-82
2023/08/08 01:20:22;;;;;;;2.80;1.60;;;12.00;99.90;;;13.11;100.00;98196.91;5022763;28;21307;-84
2023/08/08 01:23:11;;;;;;;2.23;1.50;;;12.00;99.90;;;13.06;100.00;98199.28;5022514;28;20519;-83
2023/08/08 01:25:43;;;;;;;1.60;1.17;;;12.00;99.90;;;13.03;100.00;98204.94;5023619;28;20450;-83
2023/08/08 01:28:13;;;;;;;3.40;1.60;;;12.00;99.90;;;13.04;100.00;98206.56;5023234;28;20583;-83
2023/08/08 01:30:44;;;;;;;1.77;1.40;;;12.00;99.90;;;13.02;100.00;98192.78;5025116;28;20493;-83
2023/08/08 01:33:15;;;;;;;3.30;1.57;;;11.90;99.90;;;13.02;100.00;98195.41;5023417;28;20505;-82
2023/08/08 01:35:51;;;;;;;16.90;2.70;;;11.90;99.90;;;13.01;100.00;98192.00;5021878;28;20570;-83
2023/08/08 01:38:28;;;;;;;1.93;1.47;;;11.90;99.90;;;12.94;100.00;98190.38;5022128;28;20462;-84
2023/08/08 01:41:01;;;;;;;3.13;1.40;;;11.80;99.90;;;12.83;100.00;98193.56;5020184;28;20520;-83
2023/08/08 01:43:31;;;;;;;3.10;1.40;;;11.70;99.90;;;12.75;100.00;98198.97;5020375;28;21172;-84
2023/08/08 01:46:03;;;;;;;3.57;1.23;;;11.80;99.90;;;12.77;100.00;98200.44;5019919;28;20555;-83
2023/08/08 01:48:34;;;;;;;5.57;1.83;;;11.70;99.90;;;12.78;100.00;98195.97;5022176;28;20468;-83
2023/08/08 01:51:04;;;;;;;7.30;1.63;;;11.70;99.90;;;12.81;100.00;98208.69;5019969;28;20498;-82
2023/08/08 01:53:35;;;;;;;2.43;1.80;;;11.70;99.90;;;12.76;100.00;98197.97;5021131;28;20466;-82
2023/08/08 01:56:07;;;;;;;6.97;1.80;;;11.70;99.90;;;12.74;100.00;98208.66;5019813;28;20484;-82
2023/08/08 01:58:36;;;;;;;2.83;1.60;;;11.60;99.90;;;12.74;100.00;98205.25;5019681;28;20463;-82
2023/08/08 02:01:05;;;;;;;4.03;1.77;;;11.60;99.90;;;12.65;100.00;98209.03;5020163;28;20470;-82
2023/08/08 02:03:35;;;;;;;3.17;1.53;;;11.60;99.90;;;12.66;100.00;98206.22;5020710;28;20469;-82
2023/08/08 02:06:05;;;;;;;2.33;1.90;;;11.60;99.90;;;12.63;100.00;98205.81;5018414;28;20558;-82
2023/08/08 02:08:36;;;;;;;2.23;1.80;;;11.60;99.90;;;12.61;100.00;98204.19;5021030;28;20468;-83
2023/08/08 02:11:07;;;;;;;3.30;1.53;;;11.50;99.90;;;12.63;100.00;98200.56;5019992;28;20997;-82
2023/08/08 02:13:38;;;;;;;13.10;1.73;;;11.50;99.90;;;12.57;100.00;98195.09;5021616;28;21023;-83
2023/08/08 02:16:08;;;;;;;2.50;1.67;;;11.50;99.90;;;12.56;100.00;98196.09;5022008;28;20470;-83
2023/08/08 02:18:40;;;;;;;2.27;1.30;;;11.50;99.90;;;12.60;100.00;98199.13;5020583;28;20493;-82
2023/08/08 02:21:09;;;;;;;4.07;1.80;;;11.50;99.90;;;12.56;100.00;98198.69;5022289;28;20930;-83
2023/08/08 02:23:40;;;;;;;3.97;1.50;;;11.50;99.90;;;12.56;100.00;98198.69;5021371;28;20462;-82
2023/08/08 02:26:11;;;;;;;2.03;1.53;;;11.50;99.90;;;12.51;100.00;98195.88;5021654;28;20493;-83
2023/08/08 02:28:41;;;;;;;6.13;1.70;;;11.40;99.90;;;12.39;100.00;98192.16;5021238;28;20477;-82
2023/08/08 02:31:11;;;;;;;2.97;1.60;;;11.20;99.90;;;12.40;100.00;98188.56;5022230;28;20500;-82
2023/08/08 02:33:42;;;;;;;1.87;1.43;;;11.20;99.90;;;12.38;100.00;98195.00;5022824;28;20466;-83
2023/08/08 02:36:12;;;;;;;9.13;2.27;;;11.10;99.90;;;12.33;100.00;98187.72;5021929;28;21003;-82
2023/08/08 02:38:43;;;;;;;1.80;1.50;;;11.10;99.90;;;12.25;100.00;98194.94;5022762;28;20547;-83
2023/08/08 02:41:14;;;;;;;6.90;1.50;;;11.10;99.90;;;12.23;100.00;98194.31;5021551;28;20473;-83
2023/08/08 02:43:45;;;;;;;5.20;1.60;;;11.20;99.90;;;12.24;100.00;98194.13;5020729;28;20543;-83
2023/08/08 02:46:15;;;;;;;2.07;1.53;;;11.10;99.90;;;12.21;100.00;98205.00;5017363;28;20520;-84
2023/08/08 02:48:45;;;;;;;3.53;1.43;;;11.00;99.90;;;12.17;100.00;98193.28;5020288;28;20541;-83
2023/08/08 02:51:15;;;;;;;4.97;1.60;;;11.10;99.90;;;12.19;100.00;98195.69;5021510;28;20579;-84
2023/08/08 02:53:46;;;;;;;2.77;1.50;;;11.00;99.90;;;12.19;100.00;98191.25;5020441;28;20465;-84
2023/08/08 02:56:18;;;;;;;11.10;1.83;;;11.10;99.90;;;12.23;100.00;98195.13;5020301;28;20498;-83
2023/08/08 02:58:49;;;;;;;3.00;1.70;;;11.10;99.90;;;12.24;100.00;98183.66;5020810;28;20457;-83
2023/08/08 03:01:21;;;;;;;2.53;1.90;;;11.10;99.90;;;12.23;100.00;98192.50;5017649;28;20469;-83
2023/08/08 03:03:52;;;;;;;2.30;1.50;;;11.10;99.90;;;12.18;100.00;98189.66;5018890;28;20472;-82
2023/08/08 03:06:21;;;;;;;11.00;4.30;;;11.00;99.90;;;12.09;100.00;98182.94;5020048;28;20472;-83
2023/08/08 03:08:52;;;;;;;4.53;1.67;;;11.00;99.90;;;12.09;100.00;98193.44;5018638;28;20979;-83
2023/08/08 03:11:23;;;;;;;2.23;1.50;;;11.00;99.90;;;12.06;100.00;98185.97;5016865;28;20490;-82
2023/08/08 03:13:53;;;;;;;4.73;1.70;;;11.10;99.90;;;12.03;100.00;98181.09;5017506;28;20469;-82
2023/08/08 03:16:23;;;;;;;2.37;1.40;;;11.00;99.90;;;12.03;100.00;98191.59;5017467;28;20474;-82
2023/08/08 03:18:53;;;;;;;6.53;1.60;;;11.00;99.90;;;11.98;100.00;98184.28;5014420;28;20470;-82
2023/08/08 03:21:23;;;;;;;1.83;1.50;;;10.90;99.90;;;11.99;100.00;98187.72;5018188;28;20559;-86
2023/08/08 03:23:54;;;;;;;2.20;1.60;;;10.90;99.90;;;11.89;100.00;98192.50;5014959;28;20466;-85
2023/08/08 03:26:26;;;;;;;2.43;1.30;;;11.00;99.90;;;11.81;100.00;98190.84;5017505;28;20470;-83
2023/08/08 03:28:57;;;;;;;3.97;2.07;;;10.80;99.90;;;11.83;100.00;98188.03;5019124;28;20508;-87
2023/08/08 03:31:28;;;;;;;35.23;12.60;;;10.80;99.90;;;11.87;100.00;98186.66;5019613;28;20640;-83
2023/08/08 03:33:59;;;;;;;3.00;1.63;;;10.80;99.90;;;11.87;100.00;98199.75;5016740;28;20463;-85
2023/08/08 03:36:30;;;;;;;2.00;1.33;;;10.70;99.90;;;11.81;100.00;98193.44;5017781;28;20567;-83
2023/08/08 03:39:01;;;;;;;7.33;1.60;;;10.70;99.90;;;11.68;100.00;98185.47;5017938;28;20970;-84
2023/08/08 03:41:32;;;;;;;3.90;1.80;;;10.80;99.90;;;11.63;100.00;98186.03;5019777;28;20467;-84
2023/08/08 03:44:02;;;;;;;4.70;1.70;;;10.80;99.90;;;11.59;100.00;98174.31;5022049;28;20466;-84
2023/08/08 03:46:33;;;;;;;4.10;1.77;;;10.80;99.90;;;11.69;100.00;98179.25;5020585;28;20532;-84
2023/08/08 03:49:04;;;;;;;14.17;2.07;;;10.80;99.90;;;11.67;100.00;98178.59;5018712;28;20462;-85
2023/08/08 03:51:34;;;;;;;4.73;1.70;;;10.70;99.90;;;11.70;100.00;98177.44;5018636;28;20497;-83
2023/08/08 03:54:04;;;;;;;4.63;1.20;;;10.70;99.90;;;11.70;100.00;98182.69;5020949;28;20466;-84
2023/08/08 03:56:36;;;;;;;3.73;1.60;;;10.60;99.90;;;11.69;100.00;98181.03;5019757;28;20466;-85
2023/08/08 03:59:06;;;;;;;10.50;1.80;;;10.50;99.90;;;11.64;100.00;98179.00;5023366;28;20482;-84
2023/08/08 04:01:37;;;;;;;2.10;1.50;;;10.60;99.90;;;11.68;100.00;98187.28;5023282;28;20485;-84
2023/08/08 04:04:09;;;;;;;3.17;1.37;;;10.60;99.90;;;11.68;100.00;98182.03;5022233;28;20885;-84
2023/08/08 04:06:38;;;;;;;2.80;1.43;;;10.60;99.90;;;11.67;100.00;98181.22;5022895;28;20517;-84
2023/08/08 04:09:09;;;;;;;5.20;1.20;;;10.60;99.90;;;11.59;100.00;98178.75;5020561;28;20474;-85
2023/08/08 04:11:41;;;;;;;2.13;1.37;;;10.60;99.90;;;11.52;100.00;98177.91;5026346;28;20905;-83
2023/08/08 04:14:11;;;;;;;1.63;1.53;;;10.60;99.90;;;11.55;100.00;98183.56;5021110;28;20462;-84
2023/08/08 04:16:41;;;;;;;4.23;1.80;;;10.50;99.90;;;11.58;100.00;98182.38;5020566;28;20462;-85
2023/08/08 04:19:12;;;;;;;2.10;1.63;;;10.50;99.90;;;11.53;100.00;98177.69;5021467;28;21214;-89
2023/08/08 04:21:42;;;;;;;5.10;1.20;;;10.50;99.90;;;11.57;100.00;98186.81;5022567;28;20513;-84
2023/08/08 04:24:13;;;;;;;1.37;1.27;;;10.50;99.90;;;11.56;100.00;98190.41;5020784;28;20462;-83
2023/08/08 04:26:43;;;;;;;3.27;1.33;;;10.50;99.90;;;11.56;100.00;98193.03;5020834;28;20883;-85
2023/08/08 04:29:13;;;;;;;2.70;1.40;;;10.40;99.90;;;11.55;100.00;98198.47;5026699;28;20567;-85
2023/08/08 04:31:44;;;;;;;6.23;1.50;;;10.50;99.90;;;11.54;100.00;98195.03;5021690;28;20486;-84
2023/08/08 04:34:14;;;;;;;6.80;1.70;;;10.40;99.90;;;11.51;100.00;98192.81;5022876;28;20477;-85
2023/08/08 04:36:43;;;;;;;1.43;1.33;;;10.40;99.90;;;11.46;100.00;98194.34;5021371;28;20740;-83
2023/08/08 04:39:13;;;;;;;14.67;6.10;;;10.40;99.90;;;11.49;100.00;98192.16;5022560;28;20484;-84
2023/08/08 04:41:45;;;;;;;9.10;1.90;;;10.40;99.90;;;11.53;100.00;98190.78;5020237;28;20967;-85
2023/08/08 04:44:15;;;;;;;4.43;1.50;;;10.40;99.90;;;11.54;100.00;98189.81;5023631;28;20463;-84
2023/08/08 04:46:46;;;;;;;1.97;1.57;;;10.40;99.90;;;11.46;100.00;98184.69;5024681;28;20528;-84
2023/08/08 04:49:17;;;;;;;3.17;1.50;;;10.40;99.90;;;11.44;100.00;98186.69;5024924;28;20459;-84
2023/08/08 04:51:48;;;;;;;4.37;1.30;;;10.40;99.90;;;11.42;100.00;98185.28;5022584;28;20862;-84
2023/08/08 04:54:18;;;;;;;4.97;1.40;;;10.30;99.90;;;11.44;100.00;98186.69;5024151;28;20475;-85
2023/08/08 04:56:50;;;;;;;5.47;1.40;;;10.40;99.90;;;11.44;100.00;98186.69;5023274;28;20491;-84
2023/08/08 04:59:22;;;;;;;1.37;1.23;;;10.40;99.90;;;11.40;100.00;98189.88;5024429;28;20884;-83
2023/08/08 05:01:51;;;;;;;6.83;2.47;;;10.40;99.90;;;11.40;100.00;98182.03;5023631;28;20844;-84
2023/08/08 05:04:23;;;;;;;4.37;1.43;;;10.40;99.90;;;11.41;100.00;98181.84;5023594;28;20588;-84
2023/08/08 05:06:53;;;;;;;2.30;1.50;;;10.40;99.90;;;11.44;100.00;98178.03;5022364;28;20539;-84
2023/08/08 05:09:26;;;;;;;2.77;1.27;;;10.40;99.90;;;11.48;100.00;98182.72;5022262;28;20462;-84
2023/08/08 05:11:56;;;;;;;1.57;1.33;;;10.50;99.90;;;11.49;100.00;98171.22;5025018;28;20494;-85
2023/08/08 05:14:27;;;;;;;3.30;1.60;;;10.50;99.90;;;11.44;100.00;98176.22;5022839;28;20568;-85
2023/08/08 05:16:57;;;;;;;2.07;1.70;;;10.50;99.90;;;11.44;100.00;98171.00;5024832;28;20534;-85
2023/08/08 05:19:27;;;;;;;12.10;2.23;;;10.40;99.90;;;11.48;100.00;98177.47;5022253;28;20858;-84
2023/08/08 05:21:57;;;;;;;4.20;1.40;;;10.40;99.90;;;11.49;100.00;98173.84;5022568;28;20976;-84
2023/08/08 05:24:28;;;;;;;9.70;2.07;;;10.40;99.90;;;11.48;100.00;98172.22;5023065;28;20988;-86
2023/08/08 05:27:00;;;;;;;4.00;1.50;;;10.50;99.90;;;11.48;100.00;98174.84;5026079;28;20461;-84
2023/08/08 05:29:29;;;;;;;2.70;1.60;;;10.50;99.90;;;11.49;100.00;98173.03;5024393;28;20465;-84
2023/08/08 05:32:00;;;;;;;2.90;1.70;;;10.50;99.90;;;11.47;100.00;98165.38;5022783;28;20512;-84
2023/08/08 05:34:32;;;;;;;2.07;1.77;;;10.50;99.90;;;11.47;100.00;98164.56;5022624;28;20483;-84
2023/08/08 05:37:01;;;;;;;5.13;1.60;;;10.50;99.90;;;11.48;100.00;98171.41;5025391;28;20459;-84
2023/08/08 05:39:46;;;;;;;10.90;1.83;;;10.60;99.90;;;11.55;100.00;98174.91;5023998;28;20485;-85
2023/08/08 05:42:16;;;;;;;2.90;1.67;;;10.60;99.90;;;11.63;100.00;98173.97;5024850;28;20481;-85
2023/08/08 05:44:46;;;;;;;4.23;1.70;;;10.70;99.90;;;11.68;100.00;98174.19;5023536;28;20463;-84
2023/08/08 05:47:17;;;;;;;2.53;1.50;;;10.70;99.90;;;11.73;100.00;98172.63;5023188;28;20889;-85
2023/08/08 05:49:47;;;;;;;3.97;1.97;;;10.70;99.90;;;11.79;100.00;98176.31;5023678;28;21070;-85
2023/08/08 05:52:18;;;;;;;6.70;2.27;;;10.80;99.90;;;11.85;100.00;98173.72;5022407;28;20996;-84
2023/08/08 05:54:48;;;;;;;3.67;1.80;;;10.90;99.90;;;11.88;100.00;98167.28;5022144;28;20466;-84
2023/08/08 05:57:21;;;;;;;2.43;1.53;;;10.90;99.90;;;11.93;100.00;98170.97;5024920;28;20994;-85
2023/08/08 05:59:52;;;;;;;4.70;1.63;;;11.00;99.90;;;11.99;100.00;98169.38;5021602;28;21038;-84
2023/08/08 06:02:21;;;;;;;1.73;1.40;;;11.10;99.90;;;12.05;100.00;98169.41;5027726;28;20480;-85
2023/08/08 06:04:51;;;;;;;2.90;1.73;;;11.10;99.90;;;12.14;100.00;98172.69;5025143;28;20473;-84
2023/08/08 06:07:22;;;;;;;1.90;1.40;;;11.20;99.90;;;12.17;100.00;98167.06;5023460;28;20828;-85
2023/08/08 06:09:52;;;;;;;3.27;1.57;;;11.30;99.90;;;12.22;100.00;98164.66;5025497;28;20956;-84
2023/08/08 06:12:23;;;;;;;1.50;1.20;;;11.30;99.90;;;12.27;100.00;98162.28;5022847;28;20528;-85
2023/08/08 06:14:53;;;;;;;2.07;1.80;;;11.40;99.90;;;12.34;100.00;98167.53;5021808;28;20501;-84
2023/08/08 06:17:24;;;;;;;2.50;1.40;;;11.50;99.90;;;12.38;100.00;98163.53;5022215;28;20446;-84
2023/08/08 06:19:56;;;;;;;3.40;1.87;;;11.50;99.90;;;12.44;100.00;98162.75;5020697;28;20545;-84
2023/08/08 06:22:27;;;;;;;1.60;1.30;;;11.60;99.90;;;12.52;100.00;98157.34;5019163;28;20467;-84
2023/08/08 06:24:57;;;;;;;3.63;1.50;;;11.70;99.90;;;12.54;100.00;98161.38;5022095;28;20470;-84
2023/08/08 06:27:29;;;;;;;3.33;2.13;;;11.70;99.90;;;12.61;100.00;98159.59;5022730;28;20466;-85
2023/08/08 06:29:59;;;;;;;4.53;1.80;;;11.70;99.90;;;12.68;100.00;98159.59;5023343;28;20904;-84
2023/08/08 06:32:29;;;;;;;2.13;1.43;;;11.80;99.90;;;12.71;100.00;98151.34;5020375;28;20492;-85
2023/08/08 06:35:00;;;;;;;4.70;1.67;;;11.90;99.90;;;12.76;100.00;98151.56;5022169;28;20859;-84
2023/08/08 06:37:30;;;;;;;2.37;2.00;;;11.90;99.90;;;12.80;100.00;98151.97;5023842;28;20525;-85
2023/08/08 06:40:01;;;;;;;2.27;1.57;;;11.90;99.90;;;12.85;100.00;98150.38;5025223;28;20470;-86
2023/08/08 06:42:32;;;;;;;4.50;1.70;;;12.00;99.90;;;12.91;100.00;98154.03;5023361;28;21019;-84
2023/08/08 06:45:02;;;;;;;2.50;1.80;;;12.10;99.90;;;12.97;100.00;98150.59;5023330;28;20987;-84
2023/08/08 06:47:31;;;;;;;5.23;2.10;;;12.10;99.90;;;13.03;100.00;98157.66;5022439;28;20465;-85
2023/08/08 06:50:03;;;;;;;1.90;1.70;;;12.20;99.90;;;13.08;100.00;98142.13;5021261;28;20557;-84
2023/08/08 06:52:32;;;;;;;2.60;1.77;;;12.30;99.90;;;13.16;100.00;98149.03;5023500;28;20847;-85
2023/08/08 06:55:02;;;;;;;2.23;1.60;;;12.40;99.90;;;13.21;100.00;98142.19;5022502;28;20585;-84
2023/08/08 06:57:36;;;;;;;2.30;1.57;;;12.40;99.90;;;13.29;100.00;98143.81;5025469;28;20467;-85
2023/08/08 07:00:08;;;;;;;2.67;1.40;;;12.50;99.90;;;13.36;100.00;98142.00;5024001;28;20471;-85
2023/08/08 07:02:38;;;;;;;3.23;1.60;;;12.60;99.90;;;13.44;100.00;98134.69;5021018;28;20463;-84
2023/08/08 07:05:10;;;;;;;2.30;1.17;;;12.60;99.90;;;13.55;100.00;98131.47;5023771;28;20469;-83
2023/08/08 07:07:41;;;;;;;4.20;1.40;;;12.70;99.90;;;13.66;100.00;98131.84;5024304;28;20459;-84
2023/08/08 07:10:12;;;;;;;3.20;2.03;;;12.90;99.90;;;13.73;100.00;98135.28;5023351;28;20465;-84
2023/08/08 07:12:43;;;;;;;3.10;1.20;;;12.90;99.90;;;13.78;100.00;98136.28;5021499;28;20490;-84
2023/08/08 07:15:15;;;;;;;3.43;1.33;;;13.10;99.90;;;13.86;100.00;98130.81;5021724;28;20466;-84
2023/08/08 07:17:44;;;;;;;3.00;1.70;;;13.20;99.90;;;13.94;100.00;98137.66;5021373;28;20557;-84
2023/08/08 07:20:14;;;;;;;2.70;1.40;;;13.20;99.90;;;14.00;100.00;98134.22;5021437;28;20548;-84
2023/08/08 07:22:44;;;;;;;7.20;1.80;;;13.30;99.90;;;14.07;100.00;98135.00;5022411;28;20470;-84
2023/08/08 07:25:14;;;;;;;2.93;1.17;;;13.30;99.90;;;14.15;100.00;98139.22;5022328;28;20455;-84
2023/08/08 07:27:46;;;;;;;6.10;1.40;;;13.40;99.90;;;14.20;100.00;98129.69;5022708;28;20461;-84
2023/08/08 07:30:19;;;;;;;5.20;1.43;;;13.50;99.90;;;14.29;100.00;98132.91;5021068;28;20461;-84
2023/08/08 07:32:48;;;;;;;4.90;1.83;;;13.60;99.90;;;14.35;100.00;98132.91;5023160;28;20469;-83
2023/08/08 07:35:18;;;;;;;2.07;1.47;;;13.60;99.90;;;14.43;100.00;98134.50;5024397;28;20574;-84
2023/08/08 07:37:49;;;;;;;2.73;1.20;;;13.70;99.90;;;14.47;100.00;98131.22;5027263;28;20461;-83
2023/08/08 07:40:22;;;;;;;1.47;1.10;;;13.80;99.90;;;14.56;100.00;98135.25;5025660;28;20458;-84
2023/08/08 07:42:53;;;;;;;12.13;1.80;;;14.00;99.90;;;14.63;100.00;98135.22;5025668;28;20466;-84
2023/08/08 07:45:23;;;;;;;3.70;1.63;;;14.10;99.90;;;14.69;100.00;98133.56;5025704;28;20528;-83
2023/08/08 07:47:53;;;;;;;5.27;1.70;;;14.10;99.90;;;14.77;100.00;98142.03;5026800;28;20461;-85
2023/08/08 07:50:23;;;;;;;7.30;1.40;;;14.20;99.90;;;14.87;100.00;98133.66;5027285;28;20464;-85
2023/08/08 07:52:54;;;;;;;1.60;1.50;;;14.30;99.90;;;14.95;100.00;98136.88;5028064;28;20461;-84
2023/08/08 07:55:23;;;;;;;3.30;1.83;;;14.30;99.90;;;15.02;100.00;98129.72;5028085;28;20543;-83
2023/08/08 07:57:55;;;;;;;2.93;1.37;;;14.30;99.90;;;15.11;100.00;98136.34;5028358;28;20476;-84
2023/08/08 08:00:24;;;;;;;4.30;1.43;;;14.50;99.90;;;15.17;100.00;98134.66;5028375;28;20454;-85
2023/08/08 08:02:54;;;;;;;2.63;1.50;;;14.50;99.90;;;15.24;100.00;98130.16;5028163;28;20537;-84
2023/08/08 08:05:24;;;;;;;3.40;1.80;;;14.60;99.90;;;15.32;100.00;98137.00;5027766;28;20576;-84
2023/08/08 08:07:54;;;;;;;3.43;1.27;;;14.70;99.90;;;15.40;100.00;98136.75;5028190;28;20466;-84
2023/08/08 08:10:24;;;;;;;4.40;1.57;;;14.80;99.90;;;15.46;100.00;98141.94;5026911;28;20515;-84
2023/08/08 08:12:58;;;;;;;2.03;1.33;;;14.90;99.90;;;15.54;100.00;98135.63;5027114;28;20839;-84
2023/08/08 08:15:28;;;;;;;5.07;1.30;;;14.90;99.90;;;15.61;100.00;98139.03;5025670;28;20473;-84
2023/08/08 08:17:58;;;;;;;4.97;1.73;;;15.00;99.90;;;15.68;100.00;98129.22;5023957;28;21256;-84
2023/08/08 08:20:29;;;;;;;3.30;1.47;;;15.10;99.90;;;15.77;100.00;98138.47;5024596;28;21022;-84
2023/08/08 08:23:00;;;;;;;2.70;1.30;;;15.20;99.90;;;15.84;100.00;98127.84;5023957;28;20977;-84
2023/08/08 08:25:31;;;;;;;5.97;1.53;;;15.20;99.90;;;15.89;100.00;98135.91;5025742;28;20485;-84
2023/08/08 08:28:03;;;;;;;2.23;1.33;;;15.20;99.90;;;15.97;100.00;98144.34;5026687;28;20486;-85
2023/08/08 08:30:36;;;;;;;5.30;1.70;;;15.30;99.90;;;16.04;100.00;98133.72;5026450;28;20458;-85
2023/08/08 08:33:07;;;;;;;6.23;1.97;;;15.40;99.90;;;16.12;100.00;98133.44;5025831;28;20458;-85
2023/08/08 08:35:38;;;;;;;3.20;1.93;;;15.50;99.90;;;16.20;100.00;98133.16;5025715;28;20851;-84
2023/08/08 08:38:09;;;;;;;3.93;1.70;;;15.60;99.90;;;16.25;100.00;98130.63;5024978;28;20468;-85
2023/08/08 08:40:45;;;;;;;6.00;1.80;;;15.80;99.90;;;16.31;100.00;98132.41;5024793;28;20865;-84
2023/08/08 08:43:17;;;;;;;4.60;1.63;;;15.70;99.90;;;16.36;100.00;98123.81;5023036;28;20531;-85
2023/08/08 08:45:53;;;;;;;4.80;2.10;;;15.70;99.90;;;16.41;100.00;98130.06;5023653;28;20470;-85
2023/08/08 08:48:24;;;;;;;6.20;1.37;;;15.80;99.90;;;16.48;100.00;98122.06;5023671;28;21030;-85
2023/08/08 08:50:55;;;;;;;3.53;1.40;;;15.80;99.90;;;16.49;100.00;98131.56;5024229;28;20458;-83
2023/08/08 08:53:27;;;;;;;3.90;1.43;;;15.80;99.90;;;16.56;100.00;98132.31;5021508;28;21005;-84
2023/08/08 08:55:58;;;;;;;6.17;1.77;;;15.90;99.90;;;16.60;100.00;98128.19;5023337;28;20467;-85
2023/08/08 08:58:30;;;;;;;4.07;1.50;;;15.90;99.90;;;16.69;100.00;98126.06;5025552;28;20462;-83
2023/08/08 09:01:01;;;;;;;7.23;1.40;;;16.00;99.90;;;16.73;100.00;98128.03;5024773;28;20541;-84
2023/08/08 09:03:31;;;;;;;4.30;1.40;;;16.10;99.90;;;16.75;100.00;98120.69;5022879;28;20594;-84
2023/08/08 09:06:01;;;;;;;6.33;2.77;;;16.10;99.90;;;16.78;100.00;98130.81;5022811;28;21042;-83
2023/08/08 09:08:31;;;;;;;3.10;1.40;;;16.20;99.90;;;16.78;100.00;98130.00;5025608;28;20537;-84
2023/08/08 09:11:01;;;;;;;5.50;1.80;;;16.10;99.90;;;16.82;100.00;98131.16;5022817;28;20481;-84
2023/08/08 09:13:39;;;;;;;3.17;1.50;;;16.20;99.90;;;16.86;100.00;98133.16;5025228;28;20881;-84
2023/08/08 09:16:12;;;;;;;4.50;1.57;;;16.20;99.90;;;16.91;100.00;98121.88;5024316;28;20469;-84
2023/08/08 09:18:42;;;;;;;4.03;1.50;;;16.20;99.90;;;16.92;100.00;98131.44;5025884;28;21050;-83
2023/08/08 09:21:11;;;;;;;2.53;1.43;;;16.30;99.90;;;16.97;100.00;98121.00;5023992;28;20466;-84
2023/08/08 09:23:43;;;;;;;2.03;1.40;;;16.40;99.90;;;17.07;100.00;98123.91;5022747;28;20465;-84
2023/08/08 09:26:16;;;;;;;3.10;1.40;;;16.50;99.90;;;17.10;100.00;98118.16;5023621;28;20458;-83
2023/08/08 09:28:47;;;;;;;4.50;1.60;;;16.40;99.90;;;17.13;100.00;98120.34;5024483;28;20474;-83
2023/08/08 09:31:18;;;;;;;5.50;1.40;;;16.40;99.90;;;17.19;100.00;98108.84;5024283;28;20553;-84
2023/08/08 09:33:51;;;;;;;6.30;1.97;;;16.50;99.90;;;17.26;100.00;98116.69;5023600;28;20461;-83
2023/08/08 09:36:20;;;;;;;2.20;1.60;;;16.60;99.90;;;17.34;100.00;98119.81;5022019;28;20463;-84
2023/08/08 09:38:50;;;;;;;3.07;1.67;;;16.70;99.90;;;17.45;100.00;98128.78;5023966;28;21036;-82
2023/08/08 09:41:21;;;;;;;4.97;1.83;;;16.90;99.90;;;17.50;100.00;98119.13;5022793;28;20458;-83
2023/08/08 09:43:54;;;;;;;2.83;1.70;;;17.00;99.90;;;17.54;99.48;98117.63;5023643;28;20465;-84
2023/08/08 09:46:25;;;;;;;4.17;1.10;;;16.90;99.90;;;17.56;97.79;98112.94;5023764;28;20474;-83
2023/08/08 09:48:56;;;;;;;3.83;1.47;;;16.90;99.90;;;17.59;99.01;98111.69;5023815;28;20467;-84
2023/08/08 09:51:26;;;;;;;5.27;1.70;;;17.00;99.90;;;17.60;98.00;98114.09;5026034;28;20464;-84
2023/08/08 09:53:59;;;;;;;4.40;1.60;;;17.10;99.90;;;17.67;98.54;98118.50;5037606;28;20454;-83
2023/08/08 09:56:31;;;;;;;3.50;1.40;;;17.00;99.90;;;17.69;98.06;98113.75;5024028;28;20469;-83
2023/08/08 09:59:04;;;;;;;9.73;1.70;;;17.00;99.90;;;17.75;96.90;98113.63;5023803;28;20479;-84
2023/08/08 10:01:34;;;;;;;6.10;1.50;;;17.20;99.90;;;17.82;96.93;98111.69;5024117;28;20866;-84
2023/08/08 10:04:08;;;;;;;2.60;1.37;;;17.20;99.90;;;17.86;95.26;98106.72;5023638;28;20458;-83
2023/08/08 10:06:38;;;;;;;4.33;1.50;;;17.30;99.90;;;17.92;95.76;98105.81;5037435;28;20845;-83
2023/08/08 10:09:09;;;;;;;1.20;1.10;;;17.30;99.90;;;17.94;93.92;98103.75;5022789;28;20462;-84
2023/08/08 10:11:38;;;;;;;3.73;1.53;;;17.30;99.90;;;17.97;93.43;98097.97;5023208;28;20503;-83
2023/08/08 10:14:14;;;;;;;4.90;2.23;;;17.20;99.90;;;18.03;92.26;98094.41;5023509;28;20478;-83
2023/08/08 10:16:45;;;;;;;1.77;1.50;;;17.40;99.90;;;18.07;92.20;98092.91;5023164;28;20461;-83
2023/08/08 10:19:22;;;;;;;5.93;1.63;;;17.30;99.90;;;18.15;90.85;98094.38;5023541;28;20462;-85
2023/08/08 10:22:04;;;;;;;6.70;1.70;;;17.50;99.90;;;18.20;90.34;98092.63;5022562;28;20550;-83
2023/08/08 10:24:36;;;;;;;2.50;1.43;;;17.50;99.90;;;18.18;87.86;98091.25;5024238;28;21548;-83
2023/08/08 10:27:06;;;;;;;5.63;1.37;;;17.60;99.90;;;18.21;87.99;98104.84;5023013;28;20468;-84
2023/08/08 10:29:40;;;;;;;3.27;1.47;;;17.50;99.90;;;18.25;89.22;98089.28;5025932;28;20462;-83